createdAt,value
2022-09-12T00:04:41.287Z,14.92
2022-09-12T00:09:42.960Z,15.10
2022-09-12T00:14:44.566Z,14.94
2022-09-12T00:19:46.237Z,14.84
2022-09-12T00:24:47.839Z,14.87
2022-09-12T00:29:49.461Z,15.11
2022-09-12T00:34:51.091Z,14.84
2022-09-12T00:39:52.752Z,14.88
2022-09-12T00:44:54.449Z,14.73
2022-09-12T00:50:13.125Z,14.63
2022-09-12T00:55:19.606Z,14.65
2022-09-12T01:00:24.283Z,14.41
2022-09-12T01:05:28.327Z,14.19
2022-09-12T01:10:31.613Z,14.22
2022-09-12T01:15:34.054Z,14.40
2022-09-12T01:20:42.606Z,14.24
2022-09-12T01:26:14.982Z,14.15
2022-09-12T01:31:26.716Z,14.19
2022-09-12T01:36:37.566Z,14.27
2022-09-12T01:41:46.936Z,14.36
2022-09-12T01:47:01.081Z,14.25
2022-09-12T01:52:12.187Z,14.19
2022-09-12T01:57:25.667Z,14.35
2022-09-12T02:02:33.313Z,14.14
2022-09-12T02:07:49.523Z,14.28
2022-09-12T02:13:00.669Z,14.13
2022-09-12T02:18:05.534Z,14.08
2022-09-12T02:23:11.920Z,14.12
2022-09-12T02:28:26.600Z,14.23
2022-09-12T02:33:46.995Z,14.27
2022-09-12T02:38:48.882Z,14.43
2022-09-12T02:43:51.650Z,14.35
2022-09-12T02:48:54.141Z,14.27
2022-09-12T02:53:57.107Z,14.30
2022-09-12T02:59:05.223Z,14.19
2022-09-12T03:04:22.068Z,14.14
2022-09-12T03:09:37.539Z,14.31
2022-09-12T03:14:48.546Z,14.19
2022-09-12T03:20:00.758Z,14.37
2022-09-12T03:25:08.022Z,14.20
2022-09-12T03:30:11.047Z,14.12
2022-09-12T03:35:14.345Z,14.14
2022-09-12T03:40:16.158Z,14.27
2022-09-12T03:45:17.904Z,14.16
2022-09-12T03:50:19.576Z,14.14
2022-09-12T03:55:21.159Z,14.12
2022-09-12T04:00:24.298Z,14.08
2022-09-12T04:05:26.655Z,14.15
2022-09-12T04:10:28.251Z,14.22
2022-09-12T04:15:29.959Z,14.14
2022-09-12T04:20:31.566Z,14.19
2022-09-12T04:25:33.179Z,14.20
2022-09-12T04:30:35.228Z,14.42
2022-09-12T04:35:37.234Z,14.26
2022-09-12T04:40:38.846Z,14.21
2022-09-12T04:45:40.485Z,14.25
2022-09-12T04:50:42.105Z,14.33
2022-09-12T04:55:43.769Z,14.18
2022-09-12T05:00:45.390Z,14.29
2022-09-12T05:05:46.992Z,14.32
2022-09-12T05:10:48.597Z,14.51
2022-09-12T05:15:57.860Z,14.58
2022-09-12T05:21:01.051Z,14.48
2022-09-12T05:26:04.694Z,14.69
2022-09-12T05:31:13.537Z,14.70
2022-09-12T05:36:20.822Z,14.75
2022-09-12T05:41:25.588Z,15.10
2022-09-12T05:46:32.745Z,15.19
2022-09-12T05:51:38.073Z,15.45
2022-09-12T05:56:42.522Z,15.88
2022-09-12T06:01:44.829Z,15.90
2022-09-12T06:06:46.926Z,15.84
2022-09-12T06:11:48.553Z,16.00
2022-09-12T06:16:50.623Z,16.21
2022-09-12T06:21:52.776Z,15.84
2022-09-12T06:26:54.601Z,16.13
2022-09-12T06:31:56.201Z,15.76
2022-09-12T06:36:58.004Z,16.34
2022-09-12T06:41:59.611Z,16.50
2022-09-12T06:47:10.981Z,16.17
2022-09-12T06:52:12.655Z,16.93
2022-09-12T06:57:14.781Z,17.06
2022-09-12T07:02:16.403Z,17.10
2022-09-12T07:07:18.064Z,17.54
2022-09-12T07:12:19.685Z,17.46
2022-09-12T07:17:21.328Z,17.27
2022-09-12T07:22:23.029Z,17.55
2022-09-12T07:27:24.706Z,17.90
2022-09-12T07:32:27.079Z,17.34
2022-09-12T07:37:33.030Z,17.53
2022-09-12T07:42:34.659Z,17.98
2022-09-12T07:47:36.566Z,18.16
2022-09-12T07:52:38.213Z,18.43
2022-09-12T07:57:39.837Z,19.53
2022-09-12T08:02:41.511Z,19.29
2022-09-12T08:07:43.163Z,19.41
2022-09-12T08:12:44.802Z,21.61
2022-09-12T08:17:46.428Z,23.50
2022-09-12T08:22:48.083Z,24.66
2022-09-12T08:27:49.706Z,24.29
2022-09-12T08:32:51.314Z,23.62
2022-09-12T08:37:52.908Z,23.24
2022-09-12T08:43:01.525Z,20.20
2022-09-12T08:48:06.028Z,19.51
2022-09-12T08:53:16.368Z,23.39
2022-09-12T08:58:22.820Z,27.74
2022-09-12T09:03:49.389Z,28.77
2022-09-12T09:09:22.088Z,24.64
2022-09-12T09:14:59.162Z,23.64
2022-09-12T09:20:16.308Z,22.33
2022-09-12T09:25:24.495Z,27.58
2022-09-12T09:30:26.534Z,27.70
2022-09-12T09:35:49.074Z,29.72
2022-09-12T09:41:07.136Z,31.93
2022-09-12T09:46:08.950Z,26.77
2022-09-12T09:51:11.893Z,26.20
2022-09-12T09:56:29.223Z,20.68
2022-09-12T10:01:30.954Z,27.10
2022-09-12T10:06:34.408Z,30.45
2022-09-12T10:11:39.764Z,31.22
2022-09-12T10:16:53.419Z,26.71
2022-09-12T10:21:56.247Z,29.44
2022-09-12T10:27:05.872Z,28.10
2022-09-12T10:32:09.331Z,30.33
2022-09-12T10:37:28.851Z,27.84
2022-09-12T10:42:50.438Z,30.76
2022-09-12T10:47:54.442Z,29.27
2022-09-12T10:53:13.858Z,26.18
2022-09-12T10:58:47.056Z,29.56
2022-09-12T11:04:20.583Z,31.42
2022-09-12T11:09:32.991Z,26.58
2022-09-12T11:14:34.534Z,24.97
2022-09-12T11:20:10.521Z,25.77
2022-09-12T11:25:35.135Z,23.62
2022-09-12T11:30:51.673Z,25.53
2022-09-12T11:35:55.576Z,27.56
2022-09-12T11:41:04.220Z,29.95
2022-09-12T11:46:36.357Z,30.37
2022-09-12T11:51:56.620Z,26.12
2022-09-12T11:57:19.992Z,24.93
2022-09-12T12:02:27.788Z,23.79
2022-09-12T12:07:40.248Z,24.59
2022-09-12T12:12:45.218Z,24.44
2022-09-12T12:18:22.040Z,24.33
2022-09-12T12:23:35.404Z,25.40
2022-09-12T12:28:43.112Z,24.56
2022-09-12T12:33:44.656Z,23.35
2022-09-12T12:38:46.426Z,23.05
2022-09-12T12:43:50.840Z,23.61
2022-09-12T12:49:07.411Z,24.17
2022-09-12T12:54:31.193Z,25.37
2022-09-12T12:59:33.684Z,25.85
2022-09-12T13:04:35.469Z,25.37
2022-09-12T13:09:43.693Z,26.89
2022-09-12T13:14:55.203Z,26.17
2022-09-12T13:20:34.569Z,26.90
2022-09-12T13:25:37.393Z,24.15
2022-09-12T13:30:58.334Z,22.93
2022-09-12T13:36:46.252Z,24.94
2022-09-12T13:42:07.493Z,25.36
2022-09-12T13:47:15.293Z,24.79
2022-09-12T13:52:25.789Z,24.29
2022-09-12T13:57:31.895Z,24.66
2022-09-12T14:02:36.081Z,25.45
2022-09-12T14:07:54.495Z,23.72
2022-09-12T14:12:57.451Z,23.89
2022-09-12T14:18:01.806Z,23.30
2022-09-12T14:23:27.585Z,22.93
2022-09-12T14:28:31.200Z,23.46
2022-09-12T14:33:53.440Z,23.16
2022-09-12T14:39:04.148Z,23.24
2022-09-12T14:44:10.619Z,22.72
2022-09-12T14:49:26.887Z,22.92
2022-09-12T14:54:28.539Z,22.64
2022-09-12T14:59:36.131Z,21.83
2022-09-12T15:04:42.259Z,21.80
2022-09-12T15:09:47.277Z,21.83
2022-09-12T15:14:49.123Z,22.08
2022-09-12T15:19:50.747Z,21.63
2022-09-12T15:24:53.378Z,21.61
2022-09-12T15:29:55.195Z,21.67
2022-09-12T15:34:56.921Z,20.96
2022-09-12T15:39:58.548Z,20.78
2022-09-12T15:45:02.593Z,20.50
2022-09-12T15:50:05.290Z,20.48
2022-09-12T15:55:16.755Z,20.44
2022-09-12T16:00:19.408Z,20.39
2022-09-12T16:05:25.738Z,19.88
2022-09-12T16:10:31.281Z,19.95
2022-09-12T16:15:32.940Z,19.87
2022-09-12T16:20:34.559Z,19.96
2022-09-12T16:25:37.614Z,19.80
2022-09-12T16:30:39.358Z,19.55
2022-09-12T16:35:40.947Z,19.41
2022-09-12T16:40:42.571Z,18.60
2022-09-12T16:45:44.831Z,18.86
2022-09-12T16:50:56.504Z,18.81
2022-09-12T16:55:58.200Z,18.87
2022-09-12T17:01:17.951Z,18.58
2022-09-12T17:06:20.132Z,18.34
2022-09-12T17:11:26.931Z,18.33
2022-09-12T17:16:29.006Z,17.99
2022-09-12T17:21:31.197Z,17.98
2022-09-12T17:26:32.971Z,17.72
2022-09-12T17:31:34.681Z,17.38
2022-09-12T17:36:36.992Z,17.37
2022-09-12T17:41:38.924Z,17.44
2022-09-12T17:46:41.112Z,17.16
2022-09-12T17:51:43.989Z,17.08
2022-09-12T17:56:47.369Z,17.05
2022-09-12T18:02:07.440Z,17.05
2022-09-12T18:07:09.154Z,16.96
2022-09-12T18:12:10.988Z,16.87
2022-09-12T18:17:12.578Z,16.86
2022-09-12T18:22:14.270Z,16.67
2022-09-12T18:27:15.898Z,16.65
2022-09-12T18:32:17.489Z,16.37
2022-09-12T18:37:19.082Z,16.08
2022-09-12T18:42:20.687Z,16.08
2022-09-12T18:47:23.416Z,15.70
2022-09-12T18:52:25.076Z,15.43
2022-09-12T18:57:26.683Z,15.46
2022-09-12T19:02:28.647Z,15.48
2022-09-12T19:07:30.280Z,15.40
2022-09-12T19:12:31.863Z,15.31
2022-09-12T19:17:33.462Z,14.91
2022-09-12T19:22:35.104Z,14.71
2022-09-12T19:27:36.803Z,14.50
2022-09-12T19:32:39.297Z,14.34
2022-09-12T19:37:40.900Z,14.41
2022-09-12T19:42:42.921Z,14.57
2022-09-12T19:47:44.560Z,14.65
2022-09-12T19:52:46.157Z,14.34
2022-09-12T19:57:47.783Z,14.24
2022-09-12T20:02:53.547Z,14.01
2022-09-12T20:07:55.217Z,13.73
2022-09-12T20:12:56.819Z,13.68
2022-09-12T20:17:58.427Z,13.59
2022-09-12T20:23:00.037Z,13.63
2022-09-12T20:28:01.636Z,13.69
2022-09-12T20:33:03.246Z,13.72
2022-09-12T20:38:04.831Z,13.75
2022-09-12T20:43:06.443Z,13.76
2022-09-12T20:48:08.106Z,13.48
2022-09-12T20:53:09.989Z,13.32
2022-09-12T20:58:11.575Z,13.35
2022-09-12T21:03:14.703Z,13.40
2022-09-12T21:08:16.402Z,13.04
2022-09-12T21:13:18.058Z,13.09
2022-09-12T21:18:19.653Z,13.01
2022-09-12T21:23:21.884Z,12.96
2022-09-12T21:28:23.526Z,12.68
2022-09-12T21:33:25.161Z,12.61
2022-09-12T21:38:26.780Z,12.43
2022-09-12T21:43:28.380Z,12.59
2022-09-12T21:48:30.201Z,12.65
2022-09-12T21:53:32.273Z,12.72
2022-09-12T21:58:34.481Z,12.62
2022-09-12T22:03:36.143Z,12.51
2022-09-12T22:08:38.928Z,12.42
2022-09-12T22:13:44.031Z,12.50
2022-09-12T22:18:50.652Z,12.22
2022-09-12T22:24:10.556Z,12.17
2022-09-12T22:29:16.128Z,12.34
2022-09-12T22:34:17.734Z,12.10
2022-09-12T22:39:19.420Z,11.96
2022-09-12T22:44:21.102Z,11.88
2022-09-12T22:49:22.759Z,11.71
2022-09-12T22:54:24.383Z,11.84
2022-09-12T22:59:25.982Z,11.87
2022-09-12T23:04:27.708Z,11.86
2022-09-12T23:09:34.633Z,11.93
2022-09-12T23:14:37.063Z,11.85
2022-09-12T23:19:38.660Z,11.95
2022-09-12T23:24:40.352Z,11.74
2022-09-12T23:29:41.984Z,11.69
2022-09-12T23:34:43.579Z,11.73
2022-09-12T23:39:45.239Z,11.56
2022-09-12T23:44:46.854Z,11.50
2022-09-12T23:49:48.480Z,11.56
2022-09-12T23:54:50.067Z,11.45
2022-09-12T23:59:51.739Z,11.54
